Terminal Aerodrome Forecast
Issued by NWS

Home | Current Version | Previous Version | Text Only | Print | Product List | Glossary On
Versions: 1 2 3 4 5 6 7 8 9 10 11 12 13 14 15 16 17 18
000
FTUS46 KLOX 242354
TAFOXR
TAF
KOXR 242354Z 2500/2524 27012KT P6SM FEW025
     FM250300 28006KT P6SM SKC
     FM251000 VRB03KT P6SM BKN015
     FM251200 30004KT P6SM OVC020
     FM251700 26008KT P6SM BKN025
     FM252000 27012KT P6SM SCT025 SCT250=

USA.gov is the U.S. government's official web portal to all federal, state and local government web resources and services.